Anstruther, United Kingdom
Current Conditions -  °F | °C
As of 3:50 PM on Saturday 20 Dec 2014 (Local Time) from EGQL Reporting Station
Broken Clouds Broken Clouds  
Wind Chill:   Ceiling: 19000
Heat Index:   Visibility: 6mi
Dew Point:   Wind: 15mph
Humidity: 70%   Direction: 270°W
Pressure: 30.12"   Gusts: NA
Location:  56.22°N, 2.7°W
Report Text: EGQL 201550Z 27013KT 9999 FEW040 SCT150 BKN190 06/01 Q1020 BLU
Loading
Personal Weather Stations






























Interactive Weather Map New forecast layout! Learn more

10-Day Weather Forecast

Advertisements
Track Severe Weather on mobile